Time;durP1;ratioP1;P1;durP2;ratioP2;P2;SDS_P1;SDS_P2;PMS_P1;PMS_P2;Temp;Humidity;BMP_temperature;BMP_pressure;BME280_temperature;BME280_humidity;BME280_pressure;Samples;Min_cycle;Max_cycle;Signal;HPM_P1;HPM_P2
2022/06/14 00:02:51;;;;;;;3.10;2.80;;;20.20;52.60;;;;;;5008945;28;20246;-85
2022/06/14 00:05:16;;;;;;;3.13;2.83;;;20.10;52.80;;;;;;4994160;28;20200;-85
2022/06/14 00:07:42;;;;;;;3.08;2.78;;;20.20;52.80;;;;;;4994158;28;20160;-85
2022/06/14 00:10:08;;;;;;;3.63;3.00;;;20.20;52.90;;;;;;5010471;28;20650;-85
2022/06/14 00:12:34;;;;;;;3.80;3.40;;;20.20;52.80;;;;;;5010295;28;20153;-85
2022/06/14 00:14:59;;;;;;;3.55;3.25;;;20.10;52.80;;;;;;4994255;28;20259;-85
2022/06/14 00:17:25;;;;;;;4.00;3.08;;;20.20;52.80;;;;;;5010431;28;20152;-85
2022/06/14 00:19:51;;;;;;;3.40;3.10;;;20.20;52.90;;;;;;4993928;28;20592;-85
2022/06/14 00:22:16;;;;;;;3.28;2.97;;;20.10;52.90;;;;;;5010574;28;20188;-84
2022/06/14 00:24:42;;;;;;;3.50;2.90;;;20.20;52.90;;;;;;4993867;28;20191;-85
2022/06/14 00:27:07;;;;;;;3.28;2.80;;;20.10;52.90;;;;;;4995367;28;20157;-85
2022/06/14 00:29:33;;;;;;;4.18;3.45;;;20.10;52.90;;;;;;5010024;28;20557;-85
2022/06/14 00:31:59;;;;;;;3.70;3.38;;;20.10;52.90;;;;;;5010095;28;20156;-86
2022/06/14 00:34:24;;;;;;;3.65;2.90;;;20.10;53.00;;;;;;4993647;28;20172;-85
2022/06/14 00:36:53;;;;;;;3.60;3.30;;;20.10;53.00;;;;;;5010045;28;20235;-85
2022/06/14 00:39:18;;;;;;;3.55;3.25;;;20.20;53.00;;;;;;5009637;28;20156;-86
2022/06/14 00:41:46;;;;;;;3.30;2.92;;;20.10;53.00;;;;;;5009899;28;20203;-85
2022/06/14 00:44:14;;;;;;;3.55;3.22;;;20.10;53.00;;;;;;5009756;28;20222;-85
2022/06/14 00:46:59;;;;;;;3.33;3.00;;;20.10;53.00;;;;;;5009937;28;20168;-85
2022/06/14 00:49:34;;;;;;;3.88;3.47;;;20.10;53.00;;;;;;5008525;28;20163;-85
2022/06/14 00:52:04;;;;;;;3.97;3.58;;;20.10;53.00;;;;;;4995113;28;20190;-85
2022/06/14 00:54:33;;;;;;;3.63;3.33;;;20.10;52.90;;;;;;4993086;28;20203;-86
2022/06/14 00:57:01;;;;;;;4.05;3.65;;;20.10;52.90;;;;;;5009757;28;20215;-85
2022/06/14 00:59:32;;;;;;;4.03;3.40;;;20.10;52.90;;;;;;5009655;28;20155;-85
2022/06/14 01:02:18;;;;;;;3.50;3.20;;;20.20;52.90;;;;;;5009586;28;20650;-85
2022/06/14 01:04:44;;;;;;;3.17;2.88;;;20.10;52.90;;;;;;4990840;28;20537;-86
2022/06/14 01:07:17;;;;;;;3.35;3.03;;;20.10;52.90;;;;;;5009597;28;20167;-85
2022/06/14 01:09:47;;;;;;;3.20;2.90;;;20.10;53.00;;;;;;5008812;28;20152;-85
2022/06/14 01:12:15;;;;;;;3.42;3.00;;;20.10;53.00;;;;;;5009538;28;20245;-85
2022/06/14 01:14:50;;;;;;;3.00;2.63;;;20.10;53.10;;;;;;5009357;28;20243;-85
2022/06/14 01:17:15;;;;;;;2.90;2.70;;;20.10;53.10;;;;;;5008862;28;20152;-85
2022/06/14 01:19:42;;;;;;;3.13;2.80;;;20.10;53.10;;;;;;5009382;28;20160;-84
2022/06/14 01:22:26;;;;;;;2.72;2.50;;;20.10;53.20;;;;;;4994287;28;20278;-86
2022/06/14 01:24:51;;;;;;;3.20;2.90;;;20.10;53.20;;;;;;4992408;28;20187;-85
2022/06/14 01:27:17;;;;;;;3.28;2.97;;;20.10;53.20;;;;;;5009276;28;20276;-85
2022/06/14 01:29:46;;;;;;;4.07;3.63;;;20.10;53.20;;;;;;4992730;28;20164;-85
2022/06/14 01:32:13;;;;;;;3.25;2.95;;;20.10;53.20;;;;;;4993912;28;20164;-86
2022/06/14 01:34:41;;;;;;;4.35;3.95;;;20.00;53.20;;;;;;5009025;28;20155;-85
2022/06/14 01:37:07;;;;;;;3.90;3.40;;;20.10;53.20;;;;;;4992769;28;20214;-85
2022/06/14 01:39:32;;;;;;;3.28;2.97;;;20.10;53.20;;;;;;4992647;28;20171;-85
2022/06/14 01:42:14;;;;;;;3.20;2.90;;;20.00;53.20;;;;;;5009035;28;20192;-85
2022/06/14 01:44:46;;;;;;;3.35;3.00;;;20.10;53.20;;;;;;4993703;28;20274;-85
2022/06/14 01:47:28;;;;;;;4.70;4.15;;;20.10;53.20;;;;;;5008800;28;20157;-86
2022/06/14 01:53:30;;;;;;;3.40;3.10;;;20.00;53.20;;;;;;5007901;28;20172;-86
2022/06/14 01:56:10;;;;;;;3.33;2.97;;;20.10;53.30;;;;;;5007406;28;20156;-86
2022/06/14 01:58:53;;;;;;;3.45;3.15;;;20.00;53.30;;;;;;4992531;28;20175;-85
2022/06/14 02:01:25;;;;;;;3.42;3.00;;;20.00;53.30;;;;;;4992728;28;20234;-85
2022/06/14 02:07:05;;;;;;;3.20;2.90;;;20.00;53.30;;;;;;5006915;28;20603;-85
2022/06/14 02:09:38;;;;;;;3.20;2.90;;;20.00;53.40;;;;;;4992393;28;20260;-84
2022/06/14 02:12:05;;;;;;;3.53;2.70;;;20.00;53.40;;;;;;5008322;28;20163;-85
2022/06/14 02:14:36;;;;;;;3.15;2.85;;;20.00;53.40;;;;;;5008880;28;20222;-85
2022/06/14 02:17:13;;;;;;;3.25;2.95;;;19.90;53.40;;;;;;5009053;28;20301;-86
2022/06/14 02:19:54;;;;;;;3.60;3.05;;;20.00;53.40;;;;;;5008599;28;20162;-85
2022/06/14 02:22:25;;;;;;;3.22;2.90;;;20.00;53.50;;;;;;5008226;28;20223;-85
2022/06/14 02:24:55;;;;;;;3.28;2.97;;;20.00;53.50;;;;;;4991949;28;20187;-85
2022/06/14 02:27:40;;;;;;;2.95;2.60;;;20.00;53.50;;;;;;4992216;28;20200;-85
2022/06/14 02:30:09;;;;;;;3.17;2.88;;;20.00;53.50;;;;;;5008657;28;20149;-85
2022/06/14 02:32:42;;;;;;;3.33;3.03;;;20.10;53.50;;;;;;4992078;28;20172;-85
2022/06/14 02:35:13;;;;;;;3.08;2.78;;;20.00;53.50;;;;;;5009221;28;20153;-85
2022/06/14 02:37:55;;;;;;;3.40;3.10;;;20.00;53.50;;;;;;5011911;28;20179;-85
2022/06/14 02:40:26;;;;;;;3.60;3.25;;;20.00;53.60;;;;;;4997165;28;20159;-86
2022/06/14 02:43:00;;;;;;;3.22;2.92;;;20.00;53.60;;;;;;5011853;28;20224;-85
2022/06/14 02:45:29;;;;;;;3.28;2.97;;;19.90;53.50;;;;;;5011446;28;20708;-85
2022/06/14 02:48:06;;;;;;;3.30;2.92;;;19.90;53.50;;;;;;5011802;28;20506;-85
2022/06/14 02:50:35;;;;;;;3.25;2.83;;;20.00;53.60;;;;;;4995877;28;20255;-85
2022/06/14 02:53:07;;;;;;;3.38;3.03;;;19.90;53.60;;;;;;4995728;28;20267;-85
2022/06/14 02:55:37;;;;;;;3.38;2.95;;;19.90;53.60;;;;;;5011631;28;20149;-85
2022/06/14 02:58:09;;;;;;;3.10;2.70;;;19.90;53.60;;;;;;4995081;28;20160;-85
2022/06/14 03:00:42;;;;;;;3.20;2.90;;;19.90;53.60;;;;;;5011083;28;20178;-85
2022/06/14 03:03:14;;;;;;;3.05;2.75;;;19.90;53.60;;;;;;4994844;28;20250;-86
2022/06/14 03:05:43;;;;;;;3.28;2.97;;;20.00;53.70;;;;;;5011299;28;20554;-85
2022/06/14 03:08:16;;;;;;;3.00;2.70;;;19.90;53.70;;;;;;5011514;28;20160;-85
2022/06/14 03:11:05;;;;;;;2.75;2.55;;;19.90;53.70;;;;;;5011141;28;20163;-85
2022/06/14 03:13:38;;;;;;;2.50;2.30;;;19.90;53.70;;;;;;4995586;28;20164;-85
2022/06/14 03:16:19;;;;;;;2.97;2.67;;;19.90;53.70;;;;;;5010887;28;20211;-85
2022/06/14 03:18:51;;;;;;;3.03;2.72;;;19.90;53.70;;;;;;4994266;28;20235;-86
2022/06/14 03:21:21;;;;;;;3.72;3.20;;;19.90;53.70;;;;;;5011025;28;20203;-85
2022/06/14 03:23:58;;;;;;;3.00;2.70;;;19.90;54.50;;;;;;5011398;28;20157;-85
2022/06/14 03:26:30;;;;;;;3.40;2.85;;;19.90;53.80;;;;;;5010376;28;20618;-86
2022/06/14 03:28:59;;;;;;;2.63;2.42;;;19.90;53.80;;;;;;5011047;28;20168;-85
2022/06/14 03:31:35;;;;;;;3.05;2.75;;;19.80;53.80;;;;;;4994578;28;20160;-85
2022/06/14 03:34:08;;;;;;;3.55;3.10;;;19.90;53.80;;;;;;5010798;28;20615;-85
2022/06/14 03:36:34;;;;;;;3.30;3.00;;;19.90;53.80;;;;;;5010513;28;20144;-85
2022/06/14 03:39:05;;;;;;;3.20;2.90;;;19.90;53.80;;;;;;5011008;28;20703;-85
2022/06/14 03:41:32;;;;;;;2.85;2.60;;;19.80;53.80;;;;;;5010172;28;20226;-85
2022/06/14 03:43:58;;;;;;;3.20;2.90;;;19.90;53.90;;;;;;5010648;28;20261;-85
2022/06/14 03:46:29;;;;;;;3.00;2.80;;;19.90;53.90;;;;;;5010796;28;20218;-85
2022/06/14 03:49:00;;;;;;;3.65;2.72;;;19.90;53.90;;;;;;4994865;28;20183;-85
2022/06/14 03:51:46;;;;;;;3.20;2.90;;;19.90;53.90;;;;;;5010395;28;20211;-85
2022/06/14 03:54:46;;;;;;;3.60;3.30;;;19.90;53.90;;;;;;5008525;28;20186;-85
2022/06/14 03:57:47;;;;;;;4.30;3.00;;;19.90;53.90;;;;;;4994423;28;20172;-84
2022/06/14 04:00:30;;;;;;;3.38;3.08;;;19.80;53.80;;;;;;4995602;28;20645;-85
2022/06/14 04:03:36;;;;;;;3.13;2.65;;;19.90;53.90;;;;;;4992283;28;20689;-85
2022/06/14 04:06:39;;;;;;;3.00;2.70;;;19.90;53.90;;;;;;4991855;28;20175;-85
2022/06/14 04:09:15;;;;;;;3.33;3.03;;;19.90;53.90;;;;;;4994962;28;20172;-84
2022/06/14 04:12:05;;;;;;;3.00;2.70;;;19.90;53.90;;;;;;5010532;28;20202;-85
2022/06/14 04:14:50;;;;;;;2.60;2.40;;;19.90;53.90;;;;;;5010553;28;20188;-85
2022/06/14 04:17:23;;;;;;;2.95;2.50;;;19.90;53.90;;;;;;4995337;28;20160;-85
2022/06/14 04:19:56;;;;;;;2.92;2.63;;;19.90;53.90;;;;;;5010321;28;20527;-85
2022/06/14 04:22:35;;;;;;;2.88;2.53;;;19.90;53.90;;;;;;5009605;28;20191;-85
2022/06/14 04:25:18;;;;;;;2.80;2.50;;;19.90;53.90;;;;;;4992958;28;20176;-85
2022/06/14 04:27:48;;;;;;;2.58;2.38;;;19.90;54.00;;;;;;4993848;28;20164;-85
2022/06/14 04:30:24;;;;;;;2.67;2.40;;;19.90;54.00;;;;;;4993947;28;20172;-84
2022/06/14 04:33:02;;;;;;;2.83;2.35;;;19.90;54.00;;;;;;4993569;28;20171;-85
2022/06/14 04:35:43;;;;;;;3.00;2.70;;;19.90;54.10;;;;;;5010252;28;20162;-85
2022/06/14 04:38:13;;;;;;;3.00;2.70;;;19.80;54.10;;;;;;4994950;28;20709;-85
2022/06/14 04:40:43;;;;;;;2.60;2.40;;;19.80;54.80;;;;;;5009656;28;20156;-85
2022/06/14 04:43:11;;;;;;;2.90;2.60;;;19.80;54.10;;;;;;4995197;28;20211;-85
2022/06/14 04:45:41;;;;;;;2.60;2.40;;;19.80;54.10;;;;;;5009502;28;20266;-85
2022/06/14 04:48:12;;;;;;;3.42;2.65;;;19.80;54.20;;;;;;5009413;28;20156;-85
2022/06/14 04:50:45;;;;;;;2.60;2.40;;;19.80;54.20;;;;;;5009462;28;20681;-85
2022/06/14 04:53:20;;;;;;;2.60;2.38;;;19.80;54.20;;;;;;4993302;28;20256;-85
2022/06/14 04:55:50;;;;;;;2.60;2.30;;;19.80;54.20;;;;;;5009735;28;20551;-85
2022/06/14 04:58:19;;;;;;;3.10;2.80;;;19.80;54.30;;;;;;5008938;28;20603;-85
2022/06/14 05:00:59;;;;;;;2.92;2.67;;;19.90;54.40;;;;;;4994232;28;20615;-85
2022/06/14 05:03:30;;;;;;;3.97;2.67;;;19.90;54.20;;;;;;4993216;28;20172;-84
2022/06/14 05:06:00;;;;;;;3.08;2.78;;;20.00;54.20;;;;;;4993295;28;20199;-85
2022/06/14 05:08:33;;;;;;;2.67;2.47;;;20.00;54.10;;;;;;5009196;28;20669;-85
2022/06/14 05:11:20;;;;;;;2.40;2.20;;;20.00;54.00;;;;;;4992593;28;20187;-84
2022/06/14 05:14:01;;;;;;;2.58;2.38;;;20.10;54.00;;;;;;4993048;28;20171;-85
2022/06/14 05:16:30;;;;;;;3.00;2.70;;;20.10;53.90;;;;;;4991936;28;20168;-85
2022/06/14 05:19:22;;;;;;;2.60;2.40;;;20.10;53.80;;;;;;5009085;28;20152;-85
2022/06/14 05:22:08;;;;;;;2.40;2.13;;;20.10;53.90;;;;;;5006807;28;20696;-85
2022/06/14 05:24:34;;;;;;;2.58;2.38;;;20.10;53.90;;;;;;4992974;28;20586;-85
2022/06/14 05:27:20;;;;;;;2.60;2.38;;;20.10;53.90;;;;;;5009283;28;20160;-85
2022/06/14 05:30:20;;;;;;;2.55;2.35;;;20.10;53.90;;;;;;4992881;28;20174;-85
2022/06/14 05:33:02;;;;;;;2.35;2.15;;;20.20;54.00;;;;;;4993103;28;20172;-85
2022/06/14 05:35:50;;;;;;;2.50;2.30;;;20.20;53.90;;;;;;5008029;28;20152;-85
2022/06/14 05:38:23;;;;;;;2.40;2.20;;;20.20;53.80;;;;;;5006868;28;20161;-84
2022/06/14 05:40:55;;;;;;;2.60;2.17;;;20.20;53.90;;;;;;5008451;28;20208;-85
2022/06/14 05:43:43;;;;;;;2.72;2.53;;;20.20;53.80;;;;;;5008762;28;20160;-85
2022/06/14 05:46:18;;;;;;;2.50;2.30;;;20.20;53.90;;;;;;4992445;28;20646;-85
2022/06/14 05:48:52;;;;;;;2.47;2.25;;;20.20;53.90;;;;;;5008175;28;20172;-85
2022/06/14 05:51:21;;;;;;;2.40;2.20;;;20.20;53.90;;;;;;5008876;28;20215;-85
2022/06/14 05:53:51;;;;;;;2.17;1.98;;;20.20;53.80;;;;;;5008803;28;20595;-86
2022/06/14 05:56:22;;;;;;;2.40;2.20;;;20.10;53.80;;;;;;5008577;28;20166;-85
2022/06/14 05:58:53;;;;;;;2.80;2.60;;;20.20;54.00;;;;;;4993046;28;20251;-85
2022/06/14 06:01:24;;;;;;;2.65;2.45;;;20.20;54.00;;;;;;5011877;28;20183;-85
2022/06/14 06:04:09;;;;;;;2.50;2.30;;;20.20;53.80;;;;;;4995094;28;20206;-84
2022/06/14 06:06:39;;;;;;;2.40;2.20;;;20.20;53.90;;;;;;5009915;28;20148;-82
2022/06/14 06:09:09;;;;;;;2.53;2.25;;;20.20;53.80;;;;;;4994362;28;20153;-82
2022/06/14 06:11:43;;;;;;;2.55;2.35;;;20.30;54.10;;;;;;4998124;28;20510;-81
2022/06/14 06:14:17;;;;;;;2.30;2.10;;;20.30;54.20;;;;;;4995581;28;20179;-83
2022/06/14 06:19:47;;;;;;;2.83;2.00;;;20.40;53.70;;;;;;4997807;28;20163;-82
2022/06/14 06:22:15;;;;;;;2.42;2.22;;;20.50;54.10;;;;;;5012364;28;20199;-83
2022/06/14 06:24:56;;;;;;;2.08;1.88;;;20.50;53.50;;;;;;4996436;28;20172;-83
2022/06/14 06:27:25;;;;;;;2.22;2.03;;;20.50;53.60;;;;;;5012324;28;20246;-82
2022/06/14 06:29:54;;;;;;;2.45;2.03;;;20.50;53.60;;;;;;4998004;28;20148;-82
2022/06/14 06:32:20;;;;;;;2.53;2.33;;;20.50;53.90;;;;;;5012811;28;20184;-82
2022/06/14 06:34:46;;;;;;;2.40;2.20;;;20.50;53.50;;;;;;4996015;28;20171;-82
2022/06/14 06:37:31;;;;;;;2.25;2.05;;;20.60;53.70;;;;;;5012540;28;20519;-82
2022/06/14 06:40:00;;;;;;;2.30;2.10;;;20.60;53.40;;;;;;4994153;28;20183;-82
2022/06/14 06:42:46;;;;;;;2.70;2.10;;;20.60;53.40;;;;;;4996084;28;20204;-82
2022/06/14 06:45:16;;;;;;;2.60;2.33;;;20.50;53.50;;;;;;5009014;28;20223;-83
2022/06/14 06:47:54;;;;;;;2.00;1.90;;;20.60;53.50;;;;;;4995332;28;20626;-82
2022/06/14 06:50:58;;;;;;;2.70;2.20;;;20.60;53.60;;;;;;5011603;28;20152;-83
2022/06/14 06:53:24;;;;;;;2.65;2.17;;;20.70;53.20;;;;;;5009333;28;20180;-83
2022/06/14 06:56:09;;;;;;;2.38;1.92;;;20.70;53.30;;;;;;4995368;28;20189;-83
2022/06/14 06:58:53;;;;;;;2.35;2.15;;;20.70;53.20;;;;;;5010485;28;20153;-83
2022/06/14 07:01:24;;;;;;;2.28;2.00;;;20.70;53.60;;;;;;4995598;28;20246;-82
2022/06/14 07:04:05;;;;;;;2.10;1.90;;;20.70;53.40;;;;;;5011219;28;20148;-82
2022/06/14 07:06:37;;;;;;;3.05;2.20;;;20.70;53.40;;;;;;4995310;28;20183;-82
2022/06/14 07:09:14;;;;;;;2.25;2.05;;;20.70;53.40;;;;;;4995176;28;20622;-82
2022/06/14 07:11:45;;;;;;;2.20;2.00;;;20.70;53.50;;;;;;4994172;28;20657;-82
2022/06/14 07:14:15;;;;;;;3.03;2.15;;;20.70;53.60;;;;;;4995259;28;20168;-82
2022/06/14 07:17:03;;;;;;;2.22;2.03;;;20.70;53.50;;;;;;5011094;28;20163;-82
2022/06/14 07:19:39;;;;;;;2.20;1.92;;;20.60;53.50;;;;;;4994866;28;20661;-83
2022/06/14 07:22:21;;;;;;;1.90;1.70;;;20.70;53.70;;;;;;4995023;28;20195;-82
2022/06/14 07:24:53;;;;;;;2.20;2.00;;;20.70;53.70;;;;;;4995567;28;20192;-83
2022/06/14 07:27:21;;;;;;;2.15;1.95;;;20.60;53.90;;;;;;4994565;28;20172;-82
2022/06/14 07:29:50;;;;;;;2.35;2.15;;;20.60;53.80;;;;;;4995206;28;20168;-83
2022/06/14 07:32:24;;;;;;;2.08;1.88;;;20.60;53.70;;;;;;5010937;28;20203;-82
2022/06/14 07:34:49;;;;;;;2.20;2.00;;;20.70;54.00;;;;;;5010231;28;20202;-83
2022/06/14 07:37:49;;;;;;;2.20;2.00;;;20.70;53.80;;;;;;5011137;28;20144;-83
2022/06/14 07:40:20;;;;;;;2.15;1.95;;;20.80;53.70;;;;;;4995763;28;20156;-83
2022/06/14 07:42:55;;;;;;;2.17;1.98;;;20.80;53.60;;;;;;4994123;28;20669;-83
2022/06/14 07:45:32;;;;;;;1.95;1.80;;;20.80;53.70;;;;;;4994366;28;20223;-82
2022/06/14 07:48:04;;;;;;;2.22;2.03;;;20.80;53.50;;;;;;5010154;28;20202;-83
2022/06/14 07:51:02;;;;;;;2.22;2.03;;;20.80;53.90;;;;;;5010643;28;20219;-82
2022/06/14 07:53:53;;;;;;;2.10;1.90;;;20.80;53.70;;;;;;4995420;28;20164;-83
2022/06/14 07:56:34;;;;;;;2.03;1.83;;;20.70;53.60;;;;;;4991610;28;20187;-82
2022/06/14 07:59:05;;;;;;;2.10;1.95;;;20.70;53.80;;;;;;5011257;28;20182;-83
2022/06/14 08:01:36;;;;;;;1.60;1.50;;;20.60;53.70;;;;;;5011113;28;20192;-83
2022/06/14 08:04:06;;;;;;;1.90;1.80;;;20.70;54.00;;;;;;4994496;28;20207;-82
2022/06/14 08:06:47;;;;;;;2.13;1.92;;;20.70;54.00;;;;;;5010347;28;20243;-83
2022/06/14 08:09:21;;;;;;;4.60;1.80;;;20.80;53.90;;;;;;4994093;28;20244;-83
2022/06/14 08:11:52;;;;;;;2.15;1.95;;;20.70;53.70;;;;;;5012026;28;20167;-82
2022/06/14 08:14:22;;;;;;;2.03;1.90;;;20.70;53.90;;;;;;4995493;28;20171;-83
2022/06/14 08:16:48;;;;;;;2.20;2.00;;;20.70;54.10;;;;;;5010247;28;20152;-84
2022/06/14 08:19:18;;;;;;;2.00;1.83;;;20.80;53.70;;;;;;4994018;28;20167;-84
2022/06/14 08:21:46;;;;;;;2.10;1.90;;;20.70;53.80;;;;;;4995093;28;20184;-83
2022/06/14 08:24:23;;;;;;;2.10;1.90;;;20.90;53.90;;;;;;4993736;28;20164;-83
2022/06/14 08:27:04;;;;;;;1.92;1.80;;;21.00;53.70;;;;;;4995127;28;20243;-83
2022/06/14 08:29:52;;;;;;;2.42;2.17;;;20.90;53.60;;;;;;4993550;28;20645;-83
2022/06/14 08:32:42;;;;;;;2.17;2.03;;;20.90;53.50;;;;;;4993962;28;20167;-84
2022/06/14 08:35:14;;;;;;;2.08;1.88;;;20.90;53.80;;;;;;5010076;28;20657;-83
2022/06/14 08:37:51;;;;;;;1.70;1.60;;;20.90;53.60;;;;;;4993414;28;20511;-84
2022/06/14 08:40:47;;;;;;;2.67;1.85;;;21.00;53.90;;;;;;4992286;28;20168;-83
2022/06/14 08:43:17;;;;;;;2.28;1.90;;;20.90;53.70;;;;;;4992079;28;20203;-83
2022/06/14 08:46:12;;;;;;;2.13;1.92;;;20.90;53.80;;;;;;4992742;28;20227;-83
2022/06/14 08:48:42;;;;;;;1.95;1.85;;;20.90;53.70;;;;;;5007398;28;20623;-83
2022/06/14 08:51:33;;;;;;;2.20;2.00;;;20.90;54.30;;;;;;4994621;28;20243;-83
2022/06/14 08:54:32;;;;;;;2.35;1.73;;;21.00;53.70;;;;;;4990131;28;20165;-84
2022/06/14 08:57:03;;;;;;;2.03;1.92;;;21.00;53.80;;;;;;5005571;28;20167;-85
2022/06/14 08:59:52;;;;;;;2.10;1.90;;;21.00;54.00;;;;;;5010030;28;20183;-84
2022/06/14 09:02:43;;;;;;;1.85;1.67;;;21.10;54.00;;;;;;5008121;28;20192;-83
2022/06/14 09:05:42;;;;;;;5.50;2.00;;;21.10;54.10;;;;;;5010882;28;20239;-83
2022/06/14 09:08:32;;;;;;;3.20;1.95;;;21.10;53.70;;;;;;4994088;28;20160;-83
2022/06/14 09:11:20;;;;;;;5.28;1.80;;;21.00;54.00;;;;;;4988126;28;20256;-84
2022/06/14 09:14:22;;;;;;;7.07;1.90;;;21.20;54.00;;;;;;4988910;28;20168;-83
2022/06/14 09:17:22;;;;;;;4.95;2.10;;;21.10;53.80;;;;;;4973658;28;20218;-83
2022/06/14 09:20:03;;;;;;;6.53;2.13;;;21.10;54.10;;;;;;4973472;28;20260;-83
2022/06/14 09:22:49;;;;;;;2.05;1.80;;;21.00;54.20;;;;;;4973525;28;20734;-83
2022/06/14 09:25:48;;;;;;;4.15;1.90;;;21.10;54.50;;;;;;4989720;28;20539;-83
2022/06/14 09:28:52;;;;;;;5.85;2.00;;;21.00;54.10;;;;;;4990142;28;20157;-83
2022/06/14 09:31:50;;;;;;;4.47;1.92;;;21.10;54.20;;;;;;4987216;28;20168;-86
2022/06/14 09:34:52;;;;;;;5.32;1.70;;;21.10;54.30;;;;;;4973823;28;20192;-84
2022/06/14 09:37:48;;;;;;;4.47;1.88;;;21.20;54.20;;;;;;4986775;28;20175;-84
2022/06/14 09:40:29;;;;;;;3.45;1.83;;;21.20;54.30;;;;;;4992729;28;20171;-83
2022/06/14 09:43:32;;;;;;;4.53;1.80;;;21.20;54.70;;;;;;4992628;28;20200;-84
2022/06/14 09:46:12;;;;;;;4.15;1.65;;;21.10;54.60;;;;;;4991609;28;20231;-83
2022/06/14 09:49:12;;;;;;;3.08;1.70;;;21.10;55.80;;;;;;4993714;28;20172;-83
2022/06/14 09:52:02;;;;;;;2.03;1.55;;;21.00;55.40;;;;;;4988633;28;20219;-85
2022/06/14 09:54:54;;;;;;;4.32;1.42;;;21.00;55.80;;;;;;4993723;28;20235;-85
2022/06/14 09:57:52;;;;;;;1.70;1.40;;;20.90;56.20;;;;;;4976340;28;20172;-83
2022/06/14 10:00:52;;;;;;;2.53;1.67;;;20.90;56.40;;;;;;4994383;28;20238;-84
2022/06/14 10:03:52;;;;;;;4.40;1.45;;;21.00;56.50;;;;;;4991272;28;20207;-83
2022/06/14 10:06:37;;;;;;;2.10;1.60;;;20.90;56.90;;;;;;4993277;28;20160;-84
2022/06/14 10:09:22;;;;;;;3.88;1.50;;;20.80;56.90;;;;;;4992436;28;20200;-82
2022/06/14 10:12:12;;;;;;;4.97;1.50;;;20.90;57.20;;;;;;4993631;28;20164;-82
2022/06/14 10:15:02;;;;;;;1.80;1.60;;;20.90;57.30;;;;;;4973992;28;20216;-84
2022/06/14 10:17:41;;;;;;;1.52;1.42;;;20.90;57.30;;;;;;4991297;28;20191;-82
2022/06/14 10:20:27;;;;;;;4.32;1.50;;;20.90;57.30;;;;;;4960011;28;20614;-82
2022/06/14 10:23:00;;;;;;;2.30;1.60;;;20.90;57.50;;;;;;4991914;28;20203;-83
2022/06/14 10:28:11;;;;;;;3.13;1.58;;;20.90;57.50;;;;;;4992154;28;20165;-84
2022/06/14 10:28:46;;;;;;;1.63;1.48;;;20.90;57.40;;;;;;4972932;28;20168;-84
2022/06/14 10:31:24;;;;;;;3.70;1.50;;;20.90;57.40;;;;;;4983592;28;20179;-84
2022/06/14 10:33:54;;;;;;;2.40;1.50;;;20.80;57.40;;;;;;4992144;28;20532;-83
2022/06/14 10:36:31;;;;;;;1.50;1.40;;;20.90;57.40;;;;;;4992275;28;20176;-82
2022/06/14 10:39:12;;;;;;;2.35;1.58;;;20.80;57.50;;;;;;4991877;28;20190;-83
2022/06/14 10:41:45;;;;;;;2.00;1.58;;;20.90;57.60;;;;;;4993344;28;20246;-83
2022/06/14 10:44:28;;;;;;;4.93;1.80;;;20.90;57.50;;;;;;4975650;28;20216;-82
2022/06/14 10:47:12;;;;;;;1.40;1.30;;;20.80;57.50;;;;;;4971567;28;20183;-83
2022/06/14 10:50:12;;;;;;;2.33;1.67;;;20.80;57.40;;;;;;4971116;28;20180;-82
2022/06/14 10:53:10;;;;;;;1.95;1.60;;;20.80;57.30;;;;;;4957646;28;20192;-82
2022/06/14 10:56:12;;;;;;;2.33;1.40;;;20.80;57.20;;;;;;4961170;28;20184;-82
2022/06/14 10:59:10;;;;;;;2.00;1.38;;;20.80;57.10;;;;;;4949421;28;20227;-81
2022/06/14 11:01:56;;;;;;;1.75;1.58;;;20.80;57.00;;;;;;4974325;28;20267;-81
2022/06/14 11:04:52;;;;;;;1.50;1.40;;;20.80;56.90;;;;;;4931850;28;20243;-82
2022/06/14 11:07:31;;;;;;;3.83;1.50;;;20.80;56.70;;;;;;4984547;28;20883;-82
2022/06/14 11:10:23;;;;;;;2.45;1.67;;;20.90;56.80;;;;;;4957703;28;20271;-82
2022/06/14 11:13:10;;;;;;;2.83;1.80;;;20.80;56.70;;;;;;4942340;28;20601;-82
2022/06/14 11:15:58;;;;;;;2.28;1.75;;;20.90;56.80;;;;;;4973497;28;20153;-82
2022/06/14 11:18:42;;;;;;;4.13;1.50;;;20.90;56.70;;;;;;4991373;28;20222;-81
2022/06/14 11:21:32;;;;;;;2.60;1.90;;;20.90;56.60;;;;;;5012026;28;20255;-82
2022/06/14 11:24:12;;;;;;;2.28;1.50;;;20.90;56.60;;;;;;4997232;28;20198;-84
2022/06/14 11:26:59;;;;;;;1.90;1.70;;;20.90;56.30;;;;;;5009773;28;20258;-82
2022/06/14 11:29:42;;;;;;;1.70;1.60;;;21.00;56.20;;;;;;5011061;28;20167;-83
2022/06/14 11:32:17;;;;;;;2.17;1.80;;;21.00;56.20;;;;;;5009026;28;20160;-82
2022/06/14 11:34:53;;;;;;;1.70;1.60;;;21.00;55.80;;;;;;5011141;28;20601;-82
2022/06/14 11:37:39;;;;;;;1.50;1.40;;;21.10;55.90;;;;;;4994761;28;20287;-82
2022/06/14 11:40:10;;;;;;;2.22;1.60;;;21.10;55.60;;;;;;4994738;28;20567;-82
2022/06/14 11:43:05;;;;;;;1.60;1.50;;;21.10;55.70;;;;;;4994370;28;20196;-82
2022/06/14 11:45:48;;;;;;;1.65;1.50;;;21.20;55.30;;;;;;4994585;28;20307;-81
2022/06/14 11:48:24;;;;;;;1.40;1.30;;;21.20;55.30;;;;;;5010861;28;20175;-81
2022/06/14 11:51:13;;;;;;;3.53;1.67;;;21.20;55.40;;;;;;4994056;28;20222;-81
2022/06/14 11:54:02;;;;;;;2.30;1.60;;;21.20;55.20;;;;;;5007377;28;20254;-81
2022/06/14 11:56:48;;;;;;;1.52;1.42;;;21.20;55.60;;;;;;5009210;28;20183;-82
2022/06/14 11:59:53;;;;;;;1.90;1.70;;;21.20;55.40;;;;;;5010433;28;20156;-81
2022/06/14 12:02:38;;;;;;;2.38;1.70;;;21.20;55.30;;;;;;5010077;28;20608;-81
2022/06/14 12:05:26;;;;;;;1.80;1.70;;;21.20;55.30;;;;;;4994018;28;20623;-81
2022/06/14 12:08:06;;;;;;;2.60;1.50;;;21.30;55.10;;;;;;4993460;28;20270;-81
2022/06/14 12:10:49;;;;;;;3.17;1.70;;;21.30;55.00;;;;;;4994175;28;20218;-81
2022/06/14 12:13:40;;;;;;;1.50;1.40;;;21.40;55.00;;;;;;4994050;28;20271;-81
2022/06/14 12:16:15;;;;;;;3.35;1.50;;;21.40;54.90;;;;;;4994179;28;20169;-81
2022/06/14 12:18:46;;;;;;;2.75;1.50;;;21.40;54.90;;;;;;4993833;28;20163;-82
2022/06/14 12:21:35;;;;;;;1.58;1.48;;;21.30;55.10;;;;;;5009880;28;20522;-81
2022/06/14 12:24:10;;;;;;;2.17;1.77;;;21.30;55.10;;;;;;4973099;28;20267;-82
2022/06/14 12:26:55;;;;;;;2.20;1.52;;;21.40;55.20;;;;;;4972478;28;20157;-81
2022/06/14 12:29:31;;;;;;;1.60;1.50;;;21.30;55.40;;;;;;4973271;28;20312;-81
2022/06/14 12:32:19;;;;;;;2.05;1.50;;;21.30;55.80;;;;;;4972184;28;20171;-81
2022/06/14 12:34:48;;;;;;;1.60;1.40;;;21.30;55.90;;;;;;4973163;28;20636;-82
2022/06/14 12:37:34;;;;;;;1.42;1.33;;;21.20;56.00;;;;;;4972895;28;20168;-81
2022/06/14 12:40:09;;;;;;;1.38;1.27;;;21.20;56.60;;;;;;4973127;28;20169;-83
2022/06/14 12:42:42;;;;;;;2.17;1.38;;;21.10;56.50;;;;;;4972439;28;20315;-84
2022/06/14 12:45:28;;;;;;;1.92;1.42;;;21.10;56.90;;;;;;4953494;29;20229;-81
2022/06/14 12:48:27;;;;;;;1.60;1.23;;;21.10;56.80;;;;;;4953874;28;20181;-82
2022/06/14 12:51:11;;;;;;;1.92;1.40;;;21.10;56.90;;;;;;4953697;28;20272;-82
2022/06/14 12:54:01;;;;;;;1.40;1.30;;;21.10;57.10;;;;;;4953888;28;20699;-82
2022/06/14 12:56:48;;;;;;;1.40;1.30;;;21.10;57.20;;;;;;4943154;28;20192;-82
2022/06/14 12:59:36;;;;;;;1.45;1.35;;;21.10;57.40;;;;;;4957882;28;20164;-80
2022/06/14 13:02:16;;;;;;;3.95;1.45;;;21.00;57.80;;;;;;4943593;28;20192;-82
2022/06/14 13:04:48;;;;;;;4.25;1.40;;;21.00;58.50;;;;;;4973464;28;20508;-81
2022/06/14 13:07:51;;;;;;;1.45;1.35;;;21.00;58.40;;;;;;4941698;28;20165;-82
2022/06/14 13:10:39;;;;;;;1.50;1.40;;;21.10;58.30;;;;;;4973069;28;20655;-82
2022/06/14 13:13:36;;;;;;;1.67;1.40;;;21.20;58.10;;;;;;4956463;28;20196;-83
2022/06/14 13:16:12;;;;;;;1.30;1.20;;;21.20;57.80;;;;;;4973158;28;20176;-83
2022/06/14 13:18:47;;;;;;;4.70;1.25;;;21.30;57.50;;;;;;4972555;28;20164;-83
2022/06/14 13:21:35;;;;;;;1.90;1.30;;;21.30;57.30;;;;;;4973476;28;20215;-84
2022/06/14 13:24:36;;;;;;;1.50;1.40;;;21.20;57.40;;;;;;4996179;28;20152;-84
2022/06/14 13:27:41;;;;;;;1.50;1.40;;;21.30;57.40;;;;;;5009718;28;20148;-84
2022/06/14 13:30:19;;;;;;;2.45;1.20;;;21.10;57.50;;;;;;4998363;28;20171;-83
2022/06/14 13:33:13;;;;;;;1.40;1.30;;;21.10;57.40;;;;;;5011149;28;20152;-83
2022/06/14 13:35:55;;;;;;;1.67;1.17;;;21.00;57.40;;;;;;4994839;28;20152;-84
2022/06/14 13:38:27;;;;;;;2.40;1.30;;;21.10;57.10;;;;;;5010302;28;20210;-84
2022/06/14 13:41:08;;;;;;;1.40;1.30;;;21.20;57.00;;;;;;4992631;28;20163;-84
2022/06/14 13:43:50;;;;;;;1.45;1.35;;;21.10;56.70;;;;;;4993557;28;20622;-84
2022/06/14 13:46:43;;;;;;;1.50;1.40;;;21.10;56.70;;;;;;5009678;28;20678;-87
2022/06/14 13:49:27;;;;;;;1.42;1.33;;;21.10;56.70;;;;;;4993651;28;20171;-85
2022/06/14 13:51:58;;;;;;;1.45;1.35;;;21.10;56.70;;;;;;5008834;28;20640;-85
2022/06/14 13:54:51;;;;;;;4.60;1.35;;;21.00;56.80;;;;;;4993544;28;20152;-85
2022/06/14 13:57:28;;;;;;;1.33;1.23;;;21.00;56.80;;;;;;5010311;28;20155;-88
2022/06/14 14:00:02;;;;;;;1.42;1.33;;;21.00;56.30;;;;;;5008984;28;20188;-86